Fernando Martinez

首席球探 - Atletico Venezuela
17 二月 2028
星期四
處理

性格

適應力 (16) 野心 (8) 爭議性 (7) 忠誠度 (13) 抗壓 (8) 職業素養 (9) 體育精神 (18) 性情 (17)

個人檔案

執教風格 民主型
教練證照 洲際B級
決心 8
人員管理 10
激勵 3
紀律 10
工作滿意度
100%
疲勞度
0%
職務 首席球探
薪資 37.5K 每週
合約 14.03.2030

性能

行為 良好
訓練效果
33%
球員發展
45%
傷病預防
25%
戰術執行
20%

近期事件

考察了一名球員 刚刚
推荐了转会目标 7天前
考察了一名球員 7天前
考察了一名球員 7天前
考察了一名球員 7天前
考察了一名球員 7天前
考察了一名球員 7天前
考察了一名球員 7天前

正在监控

141
球員 俱樂部 狀態 能力 信心 已观察 最后观察 最新投票
Jake Eastwood Cambridge United 活跃 95 / 89 40% 1 14.02.2028 -
Facundo Centurión Znamya Truda 活跃 92 / 88 40% 1 14.02.2028 -
Nicolas Schmid Portsmouth 活跃 122 / 119 40% 1 14.02.2028 -
Filip Stanković Virtus Entella 活跃 131 / 136 40% 2 13.02.2028 -
Fabrizio Alastra Altamura 活跃 109 / 112 40% 1 13.02.2028 -
Ivan Lomaev Ufa 活跃 127 / 121 40% 1 13.02.2028 -
Stephen McMullan Fleetwood Town 活跃 98 / 98 40% 2 12.02.2028 -
Matteo Soncin Campobasso 活跃 105 / 100 40% 1 12.02.2028 -
Jake Turner Gillingham 活跃 108 / 94 40% 1 12.02.2028 -
Gianluca Saro Foggia 活跃 124 / 112 40% 1 11.02.2028 -
Luke Southwood Bristol Rovers 活跃 116 / 100 40% 1 10.02.2028 -
Islam Imamov SKA Khabarovsk 活跃 110 / 87 40% 1 10.02.2028 -
Daniil Frolkin Fakel 活跃 114 / 110 40% 1 09.02.2028 -
Timur Magomedov Dinamo Makhachkala 活跃 107 / 108 40% 1 09.02.2028 -
Zach Hemming Chesterfield 活跃 130 / 113 40% 1 09.02.2028 -
Vladislav Zernaev Salyut 活跃 81 / 95 40% 1 08.02.2028 -
Alfie Marriott Legion 活跃 79 / 88 40% 1 08.02.2028 -
Matteo Sorzi Carpi 活跃 106 / 100 40% 1 08.02.2028 -
Will Dennis Milton Keynes Dons 活跃 112 / 131 40% 1 07.02.2028 -
Tommaso Nobile Renate 活跃 110 / 113 40% 1 07.02.2028 -
Francesco D'Alterio Ternana 活跃 108 / 110 40% 1 07.02.2028 -
Nahuel Pezzini Arsenal 活跃 112 / 111 40% 2 27.12.2027 -
Víctor Saya Deportivo La Guaira 报告就绪 72 / 87 69% 1 27.12.2027 -
Nahuel Galardi Maipú 谈判中 119 / 115 40% 1 27.12.2027 -
Joaquín Bigo Tristán Suárez 活跃 115 / 107 40% 1 27.12.2027 -
Franco Carretero Deportivo Lara 谈判中 110 / 104 40% 1 20.12.2027 -
Michele Di Gregorio Juventus 活跃 155 / 164 40% 1 20.12.2027 -
George Wickens Lincoln City 活跃 136 / 132 40% 1 20.12.2027 -
Cristopher Varela Deportivo La Guaira 活跃 120 / 123 40% 1 13.12.2027 -
Agustín Lastra Estudiantes 谈判中 119 / 109 40% 1 13.12.2027 -
Dino Trotta Deportivo La Guaira 谈判中 81 / 82 69% 1 01.12.2027 -
Agustín Módica Gimnasia y Esgrima 活跃 125 / 128 40% 1 01.12.2027 -
Carlos Torres Orenburg 活跃 105 / 93 40% 1 01.12.2027 -
Juan Rocca Gimnasia y Tiro 活跃 118 / 110 40% 1 01.12.2027 -
Naygers Flores Deportivo La Guaira 活跃 86 / 86 69% 1 01.06.2027 赞成
Sergio Carrasco Cobresal 活跃 98 / 96 40% 1 01.06.2027 -
Sebastián Cocimano Nueva Chicago 活跃 108 / 110 40% 1 01.06.2027 -
Alexander Díaz Deportivo Riestra 活跃 114 / 116 40% 1 01.06.2027 -
Louis Appéré Cambridge United 活跃 93 / 101 40% 1 27.11.2026 -
Matty Stevens AFC Wimbledon 活跃 105 / 96 40% 1 27.11.2026 -
Lee Bonis Chesterfield 活跃 95 / 116 40% 2 26.11.2026 -
Jonás Luna Santa Clara 活跃 118 / 108 40% 1 26.11.2026 -
Vyacheslav Grulev Nizhniy Novgorod 活跃 107 / 112 40% 3 25.11.2026 -
Anderson Gutiérrez Chelyabinsk 活跃 96 / 97 40% 1 25.11.2026 -
Nathan Ordaz Metalist 活跃 100 / 104 40% 1 24.11.2026 -
Sonny Perkins Leyton Orient 活跃 84 / 100 40% 1 24.11.2026 -
Breel Embolo Atlanta United FC 活跃 147 / 133 40% 5 21.11.2026 -
Isaac Matondo Koper 活跃 98 / 90 40% 1 20.11.2026 -
Sebastián Ybares Neftekhimik 活跃 92 / 98 40% 1 17.11.2026 -
Ekain Orobengoa Real Sociedad 活跃 94 / 91 40% 3 14.11.2026 -
Alexandr Saplinov Volga 活跃 99 / 95 40% 1 10.11.2026 -
Johnly Yfeko Exeter City 活跃 102 / 103 40% 1 10.11.2026 -
Job Ochieng Real Sociedad 活跃 115 / 94 40% 3 08.11.2026 -
Eduardo Armenta Ufa 活跃 92 / 91 40% 1 07.11.2026 -
Kenan Dervišagić Floriana 活跃 108 / 103 40% 2 06.11.2026 -
Axel Pérez NK Domzale 活跃 96 / 114 40% 1 06.11.2026 -
Fabricio Oviedo Rosario Central 活跃 100 / 117 40% 1 04.11.2026 -
Stephen Humphrys Bradford City 活跃 102 / 96 40% 2 03.11.2026 -
Sergio Riffo NK Zavrc 活跃 104 / 103 40% 3 01.11.2026 -
Kamran Aliev SKA Khabarovsk 活跃 111 / 106 40% 1 30.10.2026 -
Jhon Flor Sokol 活跃 78 / 105 40% 1 30.10.2026 -
Juan Manuel Jorge Defensor Sporting 活跃 109 / 109 40% 1 30.10.2026 -
Esteven Salguero Patriotas 活跃 105 / 99 40% 2 28.10.2026 -
Marcus Browne AFC Wimbledon 活跃 112 / 89 40% 2 27.10.2026 -
Mario García Racing Santander 活跃 114 / 128 40% 2 27.10.2026 -
Luka Kurtovic NK Domzale 活跃 121 / 113 40% 4 26.10.2026 -
Yeangel Montero Naxxar Lions 活跃 101 / 118 40% 1 26.10.2026 -
Aldahir Pérez Tijuana 活跃 102 / 122 40% 1 25.10.2026 -
Mauro Smarra Deportivo Riestra 活跃 106 / 108 40% 1 24.10.2026 -
Milton Castagna Neftekhimik 活跃 104 / 91 40% 1 23.10.2026 -
Sam Nombe Milton Keynes Dons 活跃 119 / 99 40% 2 21.10.2026 -
Gaspar Duarte Rosario Central 活跃 114 / 115 40% 2 20.10.2026 -
Robert Murić Floriana 活跃 101 / 117 40% 1 20.10.2026 -
Diego Valencia Universidad Catolica 活跃 110 / 105 40% 3 19.10.2026 -
Martin Sekulić Ural 活跃 116 / 109 40% 3 19.10.2026 -
Milan Tučić ND Gorica 活跃 95 / 107 40% 1 19.10.2026 -
Gabriel Jesus Barcelona 活跃 165 / 162 40% 6 18.10.2026 -
Diego Méndez Tacuarembo 活跃 85 / 87 40% 5 17.10.2026 -
Facundo Pimienta Atlético Tucumán 活跃 89 / 101 40% 1 15.10.2026 -
Joaquín Rivero Instituto 活跃 87 / 92 40% 3 13.10.2026 -
Thiago Ponce Rosario Central 活跃 97 / 101 40% 1 12.10.2026 -
Ignacio Sabatini Gimnasia y Esgrima 活跃 100 / 109 40% 1 10.10.2026 -
Gorka Gorosabel Real Sociedad 活跃 99 / 130 40% 1 09.10.2026 -
Vladimir Khubulov Dinamo Makhachkala 活跃 104 / 123 40% 1 09.10.2026 -
Manprit Sarkaria Austria Wien 活跃 126 / 129 40% 1 08.10.2026 -
Luis Rojas Universidad de Concepcion 活跃 92 / 93 40% 2 02.10.2026 -
Cristhofer Mesías Universidad de Concepcion 活跃 95 / 109 40% 1 30.09.2026 -
Juan Salas Patronato 活跃 113 / 117 40% 1 30.09.2026 -
Mariano Bracamonte Deportivo Riestra 活跃 113 / 116 40% 2 29.09.2026 -
Kyle Joseph Middlesbrough 活跃 104 / 113 40% 2 26.09.2026 -
Bojan Radulović Huddersfield Town 活跃 117 / 101 40% 1 25.09.2026 -
Luca Babino Huracán 活跃 115 / 113 40% 1 25.09.2026 -
Amadou Diawara Leganés 活跃 112 / 122 40% 1 25.09.2026 -
Carlos Rosel Grodig 活跃 92 / 98 40% 1 23.09.2026 -
Lautaro Mora Huracán 活跃 102 / 121 40% 1 23.09.2026 -
Lewis McCann Fleetwood Town 活跃 98 / 102 40% 1 21.09.2026 -
Lautaro Quiroga Defensa y Justicia 活跃 97 / 108 40% 1 21.09.2026 -
Tomás Orqueida Mattersburg 活跃 108 / 96 40% 1 17.09.2026 -
David Barrero Nizhniy Novgorod 活跃 95 / 83 40% 1 16.09.2026 -
Duván Mósquera Aguilas Doradas 活跃 111 / 108 40% 1 16.09.2026 -
Facundo Pérez Juventud 活跃 96 / 105 40% 1 15.09.2026 -
Lander Astiazarán Real Sociedad 活跃 113 / 111 40% 1 15.09.2026 -
Galo Galarza Estudiantes 活跃 91 / 96 40% 1 15.09.2026 -
Juan Román Zarza BK Hacken 活跃 90 / 88 40% 1 14.09.2026 -
Maximo Ingravidi Colón 活跃 95 / 113 40% 1 13.09.2026 -
Bruno Hernández Cerro Largo 活跃 91 / 97 40% 1 11.09.2026 -
Alexis Dulón Huracán 活跃 87 / 91 40% 1 11.09.2026 -
Tomás Romero Unión de Santa Fe 活跃 91 / 101 40% 1 11.09.2026 -
Cristhian Medina Dinamo Brest 活跃 86 / 88 40% 1 01.09.2026 -
Marcos Camarda Santiago Wanderers 活跃 100 / 104 40% 4 31.08.2026 -
Agustín Zabaleta Chaco For Ever 活跃 95 / 88 40% 1 31.08.2026 -
Gonzalo Tapia Palestino 活跃 100 / 101 40% 1 31.08.2026 -
Agustín Fernández NK Zavrc 活跃 84 / 92 40% 1 30.08.2026 -
Richard Celis Zamora 活跃 100 / 117 40% 1 30.08.2026 -
Jandro Orellana Cádiz 活跃 118 / 104 40% 1 30.08.2026 -
Gonzalo Larrazábal Deportivo Maldonado 活跃 94 / 90 40% 1 28.08.2026 -
Gonzalo Aguirre Cienciano 活跃 93 / 96 40% 1 28.08.2026 -
Jeriel De Santis Caracas 活跃 99 / 95 40% 1 27.08.2026 -
Adalberto Peñaranda Deportivo Tachira 活跃 113 / 105 40% 2 26.08.2026 -
Junior Paredes Trujillanos 活跃 92 / 107 40% 1 25.08.2026 -
Kavier Ortiz Metropolitanos 活跃 99 / 103 40% 1 25.08.2026 -
Francisco Galván Deportivo Municipal 活跃 103 / 99 40% 2 18.08.2026 -
Tadeo Polli San Martín 活跃 92 / 88 40% 1 18.08.2026 -
Tobías Bovone Deportivo Pereira 活跃 114 / 109 40% 1 16.08.2026 -
Gerónimo Tomasetti Temperley 活跃 112 / 115 40% 1 16.08.2026 -
Tomás Galván River Plate 活跃 118 / 115 40% 1 15.08.2026 -
Franco Sivetti Gimnasia y Tiro 活跃 113 / 102 40% 1 15.08.2026 -
Jules-Anthony Vilsaint Toronto FC 活跃 106 / 105 40% 1 12.08.2026 -
Ramiro Ruiz Rodríguez Atlético Tucumán 活跃 125 / 112 40% 1 11.08.2026 -
Bruno Gomes Valletta 活跃 85 / 108 40% 1 10.08.2026 -
Hakeeb Adelakun Doncaster Rovers 活跃 98 / 117 40% 1 10.08.2026 -
Joaquín Zappacosta Morón 活跃 86 / 87 40% 1 09.08.2026 -
Cristian Núñez Huracán 活跃 107 / 114 40% 1 06.08.2026 -
Jano Franco Independiente Rivadavia 活跃 92 / 82 40% 1 06.08.2026 -
Jeremy Rafanello Philadelphia Union 活跃 93 / 101 40% 1 05.08.2026 -
Alassana Jatta Notts County 活跃 105 / 119 40% 2 04.08.2026 -
Elías Ovelar Dinamo Brest 活跃 96 / 83 40% 1 04.08.2026 -
Martín Pino Godoy Cruz 活跃 114 / 106 40% 1 02.08.2026 -
Joe Abrigo Palestino 活跃 118 / 115 40% 1 02.08.2026 -
David Barbona Defensa y Justicia 活跃 120 / 113 40% 1 01.08.2026 -
Pablo Durán Celta 活跃 124 / 122 40% 1 01.08.2026 -